Pagrindinis puslapis
METAR-TAF:

METAR-TAF

Oro uostai :

Wakkanai, Japonija

platuma: 45-24N, ilguma: 141-48E, Aukštis: 8 m

Dabartinis oras

Ataskaita buvo paskelbta 9 valandos ir 36 minutes, ne 09:00 UTC
Vėjas 21 kt iš Šiaurės
Temperatūra 3°C
Drėgmė 70%
Slėgis 1020 hPa
Matomumas 10 km arba daugiau
Mažai debesys ne aukštis 1500 ft
Išsisklaidę debesys ne aukštis 2000 ft
Su prošvaistėmis ne aukštis 2500 ft

METAR: RJCW 270900Z 36021KT 9999 FEW015 SCT020 BKN025 03/M02 Q1020

Laikas: 03:36 (18:36 UTC)


TAF: trūkstamas

Orai ataskaitas ir orų prognozės (METAR, TAF).

turimą stotys yra geltonos ir raudonos taškus žemėlapyje.

Perkelti pele per norėdami pamatyti stoties vardą.

Tada spustelėkite, norėdami matyti oro stebėjimo ir prognozės.

Norėdami pakeisti žemėlapį: spustelėkite ant žalios mygtukų su juodo kryžiaus žemyn,; žalią mygtuką su brūkšneliu, jei norite nutolinti; arba žalių rodyklių gretimoms žemėlapius.


METAR-TAF: